METAR Data

Data at: 0535 UTC 28 Sep 2022

METAR for:KMTP (Montauk Arpt, NY, US)
Text:KMTP 280454Z AUTO 23003KT 16/11 A2997 RMK AO1 SLP149 T01560111 402170156
Temperature: 15.6°C ( 60°F)
Dewpoint: 11.1°C ( 52°F) [RH = 75%]
Pressure (altimeter):29.97 inches Hg (1015.0 mb) [Sea level pressure: 1014.9 mb]
Winds:from the SW (230 degrees) at 3 MPH (3 knots; 1.5 m/s)
QC Flag:automated observation with no human augmentation